Nearby METAR Reports

 

KSEE - San Diego/Santee, California, USA
Distance from station: E 4mi, 6km
Updated: Sat, 04-Dec-2021 9:35pm PST
Overcast
Overcast
 Wind from calm
Wind: Calm
Temperature: 54°F , 12°C
Dew Point: 50°F , 10°C
Humidity: 88%
Barometer: 30.15 inHg , 1021 hPa
Clouds: Overcast
Visibility: 10 miles , 16 km
Cloud details: Overcast 1200 ft
2021/12/05 05:35 KSEE 050535Z AUTO 00000KT 10SM OVC012 12/10 A3015 RMK AO2
KMYF - San Diego/Mntgmy, California, USA
Distance from station: W 6mi, 10km
Updated: Sat, 04-Dec-2021 9:53pm PST
Haze, Overcast
Haze, Overcast
 Wind from NNE
Wind: NNE 5 mph , 7 km/h
Temperature: 57°F , 14°C
Dew Point: 52°F , 11°C
Humidity: 82%
Barometer: 30.15 inHg , 1021 hPa
Summary: Haze
Clouds: Overcast
Visibility: 6 miles , 10 km
Cloud details: Overcast 1200 ft
2021/12/05 05:53 KMYF 050553Z AUTO 02004KT 6SM HZ OVC012 14/11 A3015 RMK AO2 SLP208 T01440111 10156 20139 51007
 
KNKX - Miramar Nas/San, California, USA
Distance from station: WNW 7mi, 11km
Updated: Sat, 04-Dec-2021 8:55pm PST
Overcast
Overcast
 Wind from NNW
Wind: NNW 5 mph , 7 km/h
Temperature: 55°F , 13°C
Dew Point: 52°F , 11°C
Humidity: 88%
Barometer: 30.15 inHg , 1021 hPa
Clouds: Overcast
Visibility: 8 miles , 13 km
Cloud details: Overcast 1200 ft
2021/12/05 04:55 KNKX 050455Z 33004KT 8SM OVC012 13/11 A3015 RMK AO2 SLP208 T01330111 $
KSAN - San Diego, California, USA
Distance from station: WSW 11mi, 17km
Updated: Sat, 04-Dec-2021 9:51pm PST
Overcast
Overcast
 Wind from NE
Wind: NE 3 mph , 6 km/h
Temperature: 59°F , 15°C
Dew Point: 52°F , 11°C
Humidity: 77%
Barometer: 30.17 inHg , 1021.7 hPa
Clouds: Overcast
Visibility: 8 miles , 13 km
Cloud details: Overcast 1700 ft
2021/12/05 05:51 KSAN 050551Z 04003KT 8SM OVC017 15/11 A3017 RMK AO2 SLP215 T01500111 10150 20133 50007
 
KNZY - North Island Nas, California, USA
Distance from station: SW 13mi, 22km
Updated: Sat, 04-Dec-2021 8:52pm PST
Overcast
Overcast
 Wind from N
Wind: N 6 mph , 9 km/h
Temperature: 61°F , 16°C
Dew Point: 52°F , 11°C
Humidity: 72%
Barometer: 30.15 inHg , 1021 hPa
Clouds: Overcast
Visibility: 10 miles , 16 km
Cloud details: Overcast 1600 ft
2021/12/05 04:52 KNZY 050452Z 35005KT 10SM OVC016 16/11 A3015 RMK AO2 SLP209 T01560111
KRNM - Ramona, California, USA
Distance from station: NNE 16mi, 26km
Updated: Sat, 04-Dec-2021 9:53pm PST
Fog, Overcast
Fog, Overcast
 Wind from ENE
Wind: ENE 5 mph , 7 km/h
Temperature: 50°F , 10°C
Wind Chill: 48°F , 9°C
Dew Point: 48°F , 9°C
Humidity: 94%
Barometer: 30.15 inHg , 1021 hPa
Summary: Fog
Clouds: Overcast
Visibility: 1/4 mile , 0.4 km
Cloud details: Overcast 200 ft
2021/12/05 05:53 KRNM 050553Z AUTO 07004KT 1/4SM FG VV002 10/09 A3015 RMK AO2 SLP206 T01000094 10156 20072 50008
 
KSDM - San Diego/Brown, California, USA
Distance from station: S 16mi, 26km
Updated: Sat, 04-Dec-2021 9:53pm PST
Mist, Overcast
Mist, Overcast
 Wind from calm
Wind: Calm
Temperature: 54°F , 12°C
Dew Point: 50°F , 10°C
Humidity: 88%
Barometer: 30.15 inHg , 1021 hPa
Summary: Mist
Clouds: Overcast
Visibility: 6 miles , 10 km
Cloud details: Overcast 1100 ft
2021/12/05 05:53 KSDM 050553Z AUTO 00000KT 6SM BR OVC011 12/10 A3015 RMK AO2 SLP209 T01220100 10156 20117 51007
KNRS - Imperial Beach, California, USA
Distance from station: SSW 18mi, 29km
Updated: Sat, 04-Dec-2021 8:56pm PST
Overcast
Overcast
 Wind from N
Wind: N 5 mph , 7 km/h
Temperature: 57°F , 14°C
Dew Point: 54°F , 12°C
Humidity: 88%
Barometer: 30.17 inHg , 1021.7 hPa
Clouds: Overcast
Visibility: 8 miles , 13 km
Cloud details: Overcast 1500 ft
2021/12/05 04:56 KNRS 050456Z AUTO 35004KT 8SM OVC015 14/12 A3017 RMK AO2 SLP214 T01440117
 
MMTJ - Tijuana Intl Arp, Mexico
Distance from station: S 20mi, 32km
Updated: Sat, 04-Dec-2021 8:44pm PST
Mostly cloudy
Mostly cloudy
 Wind from calm
Wind: Calm
Temperature: 52°F , 11°C
Dew Point: 50°F , 10°C
Humidity: 94%
Barometer: 30.18 inHg , 1022 hPa
Clouds: Mostly cloudy
Visibility: 4 miles , 6 km
Cloud details: Mostly cloudy 1000 ft
2021/12/05 04:44 MMTJ 050444Z 00000KT 4SM BKN010 11/10 A3018 RMK 8/500 HZ
KCRQ - Carlsbad, California, USA
Distance from station: NW 26mi, 43km
Updated: Sat, 04-Dec-2021 9:53pm PST
Haze, Overcast
Haze, Overcast
 Wind from calm
Wind: Calm
Temperature: 57°F , 14°C
Dew Point: 52°F , 11°C
Humidity: 82%
Barometer: 30.14 inHg , 1020.7 hPa
Summary: Haze
Clouds: Overcast
Visibility: 6 miles , 10 km
Cloud details: Overcast 1200 ft
2021/12/05 05:53 KCRQ 050553Z AUTO 00000KT 6SM HZ OVC012 14/11 A3014 RMK AO2 SLP205 T01440111 10144 20139 51007
 
KOKB - Oceanside, California, USA
Distance from station: NW 33mi, 54km
Updated: Sat, 04-Dec-2021 9:52pm PST
Mist, Overcast
Mist, Overcast
 Wind from calm
Wind: Calm
Temperature: 48°F , 9°C
Dew Point: 48°F , 9°C
Humidity: 100%
Barometer: 30.15 inHg , 1021 hPa
Summary: Mist
Clouds: Overcast
Visibility: 5 miles , 8 km
Cloud details: Overcast 1500 ft
2021/12/05 05:52 KOKB 050552Z AUTO 00000KT 5SM BR OVC015 09/09 A3015 RMK AO2 SLP210 T00890089 10150 20083 51010
KCZZ - Campo, California, USA
Distance from station: ESE 35mi, 56km
Updated: Mon, 26-Oct-2020 8:52am PDT
NOT Current

 Wind from NE
Wind: NE 14 mph , 22 km/h, Gust: 20 mph , 31 km/h
Temperature: 48°F , 9°C
Wind Chill: 42°F , 6°C
Dew Point: 27°F , -3°C
Humidity: 43%
Barometer: 29.99 inHg , 1015.6 hPa
2020/10/26 15:52 KCZZ 261552Z AUTO 05012G17KT 09/M03 A2999 RMK AO1 SLP140 T00891028
 
KNFG - Camp Pendleton, California, USA
Distance from station: NNW 37mi, 59km
Updated: Sat, 04-Dec-2021 8:55pm PST
Haze, Clear
Haze, Clear
 Wind from calm
Wind: Calm
Barometer: 30.16 inHg , 1021.3 hPa
Summary: Haze
Clouds: Clear
Visibility: 6 miles , 10 km
2021/12/05 04:55 KNFG 050455Z AUTO 00000KT 6SM HZ CLR A3016 RMK AO2 SLPNO $
KRIV - Riverside/March, California, USA
Distance from station: N 74mi, 119km
Updated: Sat, 04-Dec-2021 8:56pm PST
Haze, Clear
Haze, Clear
 Wind from NNW
Wind: NNW 3 mph , 6 km/h
Temperature: 45°F , 7°C
Dew Point: 39°F , 4°C
Humidity: 81%
Barometer: 30.14 inHg , 1020.7 hPa
Summary: Haze
Clouds: Clear
Visibility: 3 miles , 5 km
2021/12/05 04:56 KRIV 050456Z AUTO 34003KT 3SM HZ CLR 07/04 A3014 RMK AO2 SLP209 T00690044
 
KTRM - Thermal/Palm Spg, California, USA
Distance from station: NE 75mi, 121km
Updated: Sat, 04-Dec-2021 9:52pm PST
Clear
Clear
 Wind from N
Wind: N 7 mph , 11 km/h
Temperature: 57°F , 14°C
Dew Point: 37°F , 3°C
Humidity: 48%
Barometer: 30.04 inHg , 1017.3 hPa
Clouds: Clear
Visibility: 10 miles , 16 km
2021/12/05 05:52 KTRM 050552Z AUTO 36006KT 10SM CLR 14/03 A3004 RMK AO2 SLP175 T01390033 10244 20100 50010
KPSP - Palm Springs, California, USA
Distance from station: NNE 76mi, 122km
Updated: Sat, 04-Dec-2021 9:53pm PST
Clear
Clear
 Wind from WNW
Wind: WNW 5 mph , 7 km/h
Temperature: 64°F , 18°C
Dew Point: 34°F , 1°C
Humidity: 32%
Barometer: 30.08 inHg , 1018.6 hPa
Clouds: Clear
Visibility: 10 miles , 16 km
2021/12/05 05:53 KPSP 050553Z 30004KT 10SM CLR 18/01 A3008 RMK AO2 SLP185 T01830011 10272 20178 51009 $
 
KSNA - Costa Mesa, California, USA
Distance from station: NW 76mi, 123km
Updated: Sat, 04-Dec-2021 9:53pm PST
Haze, Clear
Haze, Clear
 Wind from calm
Wind: Calm
Temperature: 57°F , 14°C
Dew Point: 50°F , 10°C
Humidity: 77%
Barometer: 30.16 inHg , 1021.3 hPa
Summary: Haze
Clouds: Clear
Visibility: 5 miles , 8 km
2021/12/05 05:53 KSNA 050553Z 00000KT 5SM HZ CLR 14/10 A3016 RMK AO2 SLP211 T01390100 10172 20139 52008 $
KNJK - El Centro Naf, California, USA
Distance from station: E 79mi, 127km
Updated: Sat, 04-Dec-2021 8:56pm PST
Clear
Clear
 Wind from varies
Wind: varies 6 mph , 9 km/h
Temperature: 61°F , 16°C
Dew Point: 32°F , 0°C
Humidity: 34%
Barometer: 30.05 inHg , 1017.6 hPa
Clouds: Clear
Visibility: 10 miles , 16 km
2021/12/05 04:56 KNJK 050456Z VRB05KT 10SM CLR 16/00 A3005 RMK AO2 SLP191 T01560000 $
 
KAJO - Corona Muni, California, USA
Distance from station: NNW 82mi, 132km
Updated: Sat, 04-Dec-2021 9:51pm PST
Mist, Clear
Mist, Clear
 Wind from calm
Wind: Calm
Temperature: 46°F , 8°C
Dew Point: 46°F , 8°C
Humidity: 100%
Barometer: 30.16 inHg , 1021.3 hPa
Summary: Mist
Clouds: Clear
Visibility: 3 miles , 5 km
2021/12/05 05:51 KAJO 050551Z AUTO 00000KT 3SM BR CLR 08/08 A3016 RMK AO2